sensor_id;sensor_type;location;lat;lon;timestamp;P1;durP1;ratioP1;P2;durP2;ratioP2
17372;SDS011;8803;48.116;11.590;2023-05-29T00:01:09;11.07;;;8.63;;
17372;SDS011;8803;48.116;11.590;2023-05-29T00:03:22;9.63;;;8.00;;
17372;SDS011;8803;48.116;11.590;2023-05-29T00:05:25;10.00;;;7.93;;
17372;SDS011;8803;48.116;11.590;2023-05-29T00:07:38;10.30;;;8.13;;
17372;SDS011;8803;48.116;11.590;2023-05-29T00:09:42;11.03;;;8.27;;
17372;SDS011;8803;48.116;11.590;2023-05-29T00:11:46;8.40;;;7.43;;
17372;SDS011;8803;48.116;11.590;2023-05-29T00:13:51;12.03;;;8.37;;
17372;SDS011;8803;48.116;11.590;2023-05-29T00:15:55;10.07;;;8.03;;
17372;SDS011;8803;48.116;11.590;2023-05-29T00:18:11;9.07;;;7.70;;
17372;SDS011;8803;48.116;11.590;2023-05-29T00:20:15;9.30;;;7.97;;
17372;SDS011;8803;48.116;11.590;2023-05-29T00:22:27;8.40;;;7.50;;
17372;SDS011;8803;48.116;11.590;2023-05-29T00:24:31;10.37;;;8.23;;
17372;SDS011;8803;48.116;11.590;2023-05-29T00:26:45;11.47;;;7.53;;
17372;SDS011;8803;48.116;11.590;2023-05-29T00:28:49;9.77;;;7.93;;
17372;SDS011;8803;48.116;11.590;2023-05-29T00:30:52;10.77;;;8.00;;
17372;SDS011;8803;48.116;11.590;2023-05-29T00:32:56;9.83;;;8.07;;
17372;SDS011;8803;48.116;11.590;2023-05-29T00:35:11;9.47;;;8.03;;
17372;SDS011;8803;48.116;11.590;2023-05-29T00:37:15;11.77;;;8.03;;
17372;SDS011;8803;48.116;11.590;2023-05-29T00:39:28;9.03;;;7.20;;
17372;SDS011;8803;48.116;11.590;2023-05-29T00:41:32;9.53;;;8.13;;
17372;SDS011;8803;48.116;11.590;2023-05-29T00:43:35;9.20;;;7.23;;
17372;SDS011;8803;48.116;11.590;2023-05-29T00:45:39;11.73;;;7.97;;
17372;SDS011;8803;48.116;11.590;2023-05-29T00:47:52;11.87;;;8.00;;
17372;SDS011;8803;48.116;11.590;2023-05-29T00:49:56;10.47;;;7.73;;
17372;SDS011;8803;48.116;11.590;2023-05-29T00:52:00;9.73;;;7.60;;
17372;SDS011;8803;48.116;11.590;2023-05-29T00:54:07;9.53;;;7.80;;
17372;SDS011;8803;48.116;11.590;2023-05-29T00:56:22;10.00;;;7.47;;
17372;SDS011;8803;48.116;11.590;2023-05-29T01:00:38;8.37;;;7.53;;
17372;SDS011;8803;48.116;11.590;2023-05-29T01:02:44;9.97;;;7.57;;
17372;SDS011;8803;48.116;11.590;2023-05-29T01:04:49;9.57;;;8.00;;
17372;SDS011;8803;48.116;11.590;2023-05-29T01:07:02;11.07;;;8.40;;
17372;SDS011;8803;48.116;11.590;2023-05-29T01:09:06;12.27;;;8.07;;
17372;SDS011;8803;48.116;11.590;2023-05-29T01:11:12;9.90;;;7.27;;
17372;SDS011;8803;48.116;11.590;2023-05-29T01:13:21;8.70;;;7.50;;
17372;SDS011;8803;48.116;11.590;2023-05-29T01:15:31;11.33;;;7.80;;
17372;SDS011;8803;48.116;11.590;2023-05-29T01:17:57;10.13;;;8.27;;
17372;SDS011;8803;48.116;11.590;2023-05-29T01:20:08;10.13;;;8.00;;
17372;SDS011;8803;48.116;11.590;2023-05-29T01:22:19;8.83;;;7.60;;
17372;SDS011;8803;48.116;11.590;2023-05-29T01:24:37;10.50;;;7.77;;
17372;SDS011;8803;48.116;11.590;2023-05-29T01:29:04;8.60;;;7.70;;
17372;SDS011;8803;48.116;11.590;2023-05-29T01:31:10;10.50;;;8.20;;
17372;SDS011;8803;48.116;11.590;2023-05-29T01:33:17;8.80;;;7.10;;
17372;SDS011;8803;48.116;11.590;2023-05-29T01:35:21;10.30;;;7.43;;
17372;SDS011;8803;48.116;11.590;2023-05-29T01:37:33;9.77;;;7.33;;
17372;SDS011;8803;48.116;11.590;2023-05-29T01:39:37;8.33;;;6.90;;
17372;SDS011;8803;48.116;11.590;2023-05-29T01:41:41;8.33;;;6.97;;
17372;SDS011;8803;48.116;11.590;2023-05-29T01:43:47;8.30;;;6.70;;
17372;SDS011;8803;48.116;11.590;2023-05-29T01:48:05;7.40;;;6.43;;
17372;SDS011;8803;48.116;11.590;2023-05-29T01:50:09;10.70;;;7.10;;
17372;SDS011;8803;48.116;11.590;2023-05-29T01:52:15;8.27;;;7.00;;
17372;SDS011;8803;48.116;11.590;2023-05-29T01:54:19;10.77;;;6.70;;
17372;SDS011;8803;48.116;11.590;2023-05-29T01:56:32;8.57;;;6.83;;
17372;SDS011;8803;48.116;11.590;2023-05-29T01:58:37;10.17;;;6.90;;
17372;SDS011;8803;48.116;11.590;2023-05-29T02:00:42;8.67;;;6.90;;
17372;SDS011;8803;48.116;11.590;2023-05-29T02:02:55;7.57;;;6.77;;
17372;SDS011;8803;48.116;11.590;2023-05-29T02:04:59;7.43;;;6.70;;
17372;SDS011;8803;48.116;11.590;2023-05-29T02:07:11;8.53;;;6.17;;
17372;SDS011;8803;48.116;11.590;2023-05-29T02:09:16;8.07;;;6.40;;
17372;SDS011;8803;48.116;11.590;2023-05-29T02:11:22;8.20;;;6.73;;
17372;SDS011;8803;48.116;11.590;2023-05-29T02:13:27;9.30;;;7.00;;
17372;SDS011;8803;48.116;11.590;2023-05-29T02:15:30;7.77;;;6.67;;
17372;SDS011;8803;48.116;11.590;2023-05-29T02:17:34;8.60;;;6.57;;
17372;SDS011;8803;48.116;11.590;2023-05-29T02:19:47;9.03;;;6.80;;
17372;SDS011;8803;48.116;11.590;2023-05-29T02:21:51;8.43;;;6.70;;
17372;SDS011;8803;48.116;11.590;2023-05-29T02:23:55;8.60;;;6.07;;
17372;SDS011;8803;48.116;11.590;2023-05-29T02:25:59;7.30;;;6.20;;
17372;SDS011;8803;48.116;11.590;2023-05-29T02:28:16;8.50;;;7.03;;
17372;SDS011;8803;48.116;11.590;2023-05-29T02:30:19;8.30;;;6.30;;
17372;SDS011;8803;48.116;11.590;2023-05-29T02:32:23;8.80;;;7.07;;
17372;SDS011;8803;48.116;11.590;2023-05-29T02:34:37;7.33;;;6.30;;
17372;SDS011;8803;48.116;11.590;2023-05-29T02:36:41;7.87;;;6.30;;
17372;SDS011;8803;48.116;11.590;2023-05-29T02:38:54;6.80;;;5.77;;
17372;SDS011;8803;48.116;11.590;2023-05-29T02:40:58;7.53;;;6.17;;
17372;SDS011;8803;48.116;11.590;2023-05-29T02:43:02;7.60;;;6.00;;
17372;SDS011;8803;48.116;11.590;2023-05-29T02:45:08;7.93;;;6.43;;
17372;SDS011;8803;48.116;11.590;2023-05-29T02:47:12;8.07;;;5.90;;
17372;SDS011;8803;48.116;11.590;2023-05-29T02:49:25;7.23;;;6.07;;
17372;SDS011;8803;48.116;11.590;2023-05-29T02:51:28;7.10;;;6.30;;
17372;SDS011;8803;48.116;11.590;2023-05-29T02:53:33;7.53;;;5.90;;
17372;SDS011;8803;48.116;11.590;2023-05-29T02:55:37;7.50;;;5.60;;
17372;SDS011;8803;48.116;11.590;2023-05-29T02:57:52;7.20;;;5.37;;
17372;SDS011;8803;48.116;11.590;2023-05-29T03:00:04;7.77;;;6.40;;
17372;SDS011;8803;48.116;11.590;2023-05-29T03:02:10;7.50;;;5.67;;
17372;SDS011;8803;48.116;11.590;2023-05-29T03:04:22;7.70;;;5.97;;
17372;SDS011;8803;48.116;11.590;2023-05-29T03:06:26;7.73;;;6.00;;
17372;SDS011;8803;48.116;11.590;2023-05-29T03:08:40;6.17;;;5.57;;
17372;SDS011;8803;48.116;11.590;2023-05-29T03:10:46;8.43;;;6.17;;
17372;SDS011;8803;48.116;11.590;2023-05-29T03:12:50;8.83;;;6.30;;
17372;SDS011;8803;48.116;11.590;2023-05-29T03:15:03;7.33;;;6.20;;
17372;SDS011;8803;48.116;11.590;2023-05-29T03:17:08;7.27;;;6.27;;
17372;SDS011;8803;48.116;11.590;2023-05-29T03:19:23;8.57;;;6.27;;
17372;SDS011;8803;48.116;11.590;2023-05-29T03:21:27;8.47;;;5.67;;
17372;SDS011;8803;48.116;11.590;2023-05-29T03:23:32;9.03;;;6.40;;
17372;SDS011;8803;48.116;11.590;2023-05-29T03:25:36;6.77;;;5.77;;
17372;SDS011;8803;48.116;11.590;2023-05-29T03:27:40;6.80;;;5.87;;
17372;SDS011;8803;48.116;11.590;2023-05-29T03:29:53;8.30;;;6.37;;
17372;SDS011;8803;48.116;11.590;2023-05-29T03:31:57;7.47;;;6.20;;
17372;SDS011;8803;48.116;11.590;2023-05-29T03:34:00;7.20;;;5.90;;
17372;SDS011;8803;48.116;11.590;2023-05-29T03:36:13;5.67;;;5.00;;
17372;SDS011;8803;48.116;11.590;2023-05-29T03:38:18;6.93;;;5.63;;
17372;SDS011;8803;48.116;11.590;2023-05-29T03:40:21;7.97;;;6.00;;
17372;SDS011;8803;48.116;11.590;2023-05-29T03:42:25;6.83;;;5.50;;
17372;SDS011;8803;48.116;11.590;2023-05-29T03:44:31;7.93;;;5.67;;
17372;SDS011;8803;48.116;11.590;2023-05-29T03:46:46;6.27;;;5.47;;
17372;SDS011;8803;48.116;11.590;2023-05-29T03:48:51;6.20;;;5.17;;
17372;SDS011;8803;48.116;11.590;2023-05-29T03:51:05;7.80;;;5.97;;
17372;SDS011;8803;48.116;11.590;2023-05-29T03:53:09;6.53;;;5.20;;
17372;SDS011;8803;48.116;11.590;2023-05-29T03:55:13;7.77;;;5.37;;
17372;SDS011;8803;48.116;11.590;2023-05-29T03:57:25;6.77;;;5.47;;
17372;SDS011;8803;48.116;11.590;2023-05-29T04:01:40;6.87;;;5.73;;
17372;SDS011;8803;48.116;11.590;2023-05-29T04:03:44;6.30;;;5.43;;
17372;SDS011;8803;48.116;11.590;2023-05-29T04:07:59;6.87;;;5.63;;
17372;SDS011;8803;48.116;11.590;2023-05-29T04:10:06;7.17;;;5.57;;
17372;SDS011;8803;48.116;11.590;2023-05-29T04:12:19;8.07;;;6.27;;
17372;SDS011;8803;48.116;11.590;2023-05-29T04:14:23;7.70;;;5.50;;
17372;SDS011;8803;48.116;11.590;2023-05-29T04:16:35;6.97;;;5.40;;
17372;SDS011;8803;48.116;11.590;2023-05-29T04:18:39;7.80;;;5.87;;
17372;SDS011;8803;48.116;11.590;2023-05-29T04:20:43;6.17;;;5.23;;
17372;SDS011;8803;48.116;11.590;2023-05-29T04:22:48;6.73;;;5.60;;
17372;SDS011;8803;48.116;11.590;2023-05-29T04:24:52;7.80;;;5.63;;
17372;SDS011;8803;48.116;11.590;2023-05-29T04:27:04;7.00;;;5.80;;
17372;SDS011;8803;48.116;11.590;2023-05-29T04:29:11;6.20;;;5.43;;
17372;SDS011;8803;48.116;11.590;2023-05-29T04:31:24;6.20;;;5.40;;
17372;SDS011;8803;48.116;11.590;2023-05-29T04:33:28;9.17;;;6.03;;
17372;SDS011;8803;48.116;11.590;2023-05-29T04:35:31;8.27;;;6.57;;
17372;SDS011;8803;48.116;11.590;2023-05-29T04:37:46;7.23;;;6.47;;
17372;SDS011;8803;48.116;11.590;2023-05-29T04:39:49;7.87;;;6.43;;
17372;SDS011;8803;48.116;11.590;2023-05-29T04:41:53;7.93;;;6.13;;
17372;SDS011;8803;48.116;11.590;2023-05-29T04:43:59;6.87;;;6.17;;
17372;SDS011;8803;48.116;11.590;2023-05-29T04:46:05;7.57;;;6.03;;
17372;SDS011;8803;48.116;11.590;2023-05-29T04:48:18;7.23;;;6.17;;
17372;SDS011;8803;48.116;11.590;2023-05-29T04:50:22;8.13;;;5.63;;
17372;SDS011;8803;48.116;11.590;2023-05-29T04:52:35;6.67;;;5.80;;
17372;SDS011;8803;48.116;11.590;2023-05-29T04:54:39;8.50;;;5.57;;
17372;SDS011;8803;48.116;11.590;2023-05-29T04:56:43;7.50;;;5.87;;
17372;SDS011;8803;48.116;11.590;2023-05-29T04:58:48;8.37;;;6.30;;
17372;SDS011;8803;48.116;11.590;2023-05-29T05:01:00;7.50;;;6.23;;
17372;SDS011;8803;48.116;11.590;2023-05-29T05:03:04;6.03;;;5.43;;
17372;SDS011;8803;48.116;11.590;2023-05-29T05:05:17;7.43;;;5.63;;
17372;SDS011;8803;48.116;11.590;2023-05-29T05:07:21;6.73;;;5.83;;
17372;SDS011;8803;48.116;11.590;2023-05-29T05:09:37;6.50;;;5.90;;
17372;SDS011;8803;48.116;11.590;2023-05-29T05:11:41;5.93;;;5.33;;
17372;SDS011;8803;48.116;11.590;2023-05-29T05:13:44;6.43;;;5.50;;
17372;SDS011;8803;48.116;11.590;2023-05-29T05:15:48;7.33;;;5.37;;
17372;SDS011;8803;48.116;11.590;2023-05-29T05:18:01;7.93;;;6.27;;
17372;SDS011;8803;48.116;11.590;2023-05-29T05:20:07;6.72;;;6.00;;
17372;SDS011;8803;48.116;11.590;2023-05-29T05:22:12;8.80;;;6.03;;
17372;SDS011;8803;48.116;11.590;2023-05-29T05:24:16;5.92;;;5.30;;
17372;SDS011;8803;48.116;11.590;2023-05-29T05:26:32;8.93;;;6.30;;
17372;SDS011;8803;48.116;11.590;2023-05-29T05:28:44;7.55;;;5.87;;
17372;SDS011;8803;48.116;11.590;2023-05-29T05:30:48;7.20;;;6.10;;
17372;SDS011;8803;48.116;11.590;2023-05-29T05:32:53;7.83;;;6.22;;
17372;SDS011;8803;48.116;11.590;2023-05-29T05:37:10;7.65;;;6.40;;
17372;SDS011;8803;48.116;11.590;2023-05-29T05:39:13;6.92;;;6.03;;
17372;SDS011;8803;48.116;11.590;2023-05-29T05:41:17;7.58;;;6.35;;
17372;SDS011;8803;48.116;11.590;2023-05-29T05:43:22;7.70;;;6.50;;
17372;SDS011;8803;48.116;11.590;2023-05-29T05:45:27;6.70;;;6.00;;
17372;SDS011;8803;48.116;11.590;2023-05-29T05:47:42;6.83;;;5.65;;
17372;SDS011;8803;48.116;11.590;2023-05-29T05:49:47;6.92;;;5.90;;
17372;SDS011;8803;48.116;11.590;2023-05-29T05:51:52;6.35;;;5.65;;
17372;SDS011;8803;48.116;11.590;2023-05-29T05:53:56;8.05;;;5.72;;
17372;SDS011;8803;48.116;11.590;2023-05-29T05:56:12;8.43;;;7.17;;
17372;SDS011;8803;48.116;11.590;2023-05-29T05:58:16;8.00;;;6.53;;
17372;SDS011;8803;48.116;11.590;2023-05-29T06:00:21;6.90;;;5.78;;
17372;SDS011;8803;48.116;11.590;2023-05-29T06:02:27;7.40;;;5.55;;
17372;SDS011;8803;48.116;11.590;2023-05-29T06:04:31;5.83;;;5.08;;
17372;SDS011;8803;48.116;11.590;2023-05-29T06:06:43;6.62;;;5.95;;
17372;SDS011;8803;48.116;11.590;2023-05-29T06:08:47;6.70;;;5.42;;
17372;SDS011;8803;48.116;11.590;2023-05-29T06:10:51;6.35;;;4.87;;
17372;SDS011;8803;48.116;11.590;2023-05-29T06:12:55;7.95;;;6.08;;
17372;SDS011;8803;48.116;11.590;2023-05-29T06:14:59;6.08;;;5.12;;
17372;SDS011;8803;48.116;11.590;2023-05-29T06:17:11;7.62;;;6.08;;
17372;SDS011;8803;48.116;11.590;2023-05-29T06:19:15;6.53;;;5.83;;
17372;SDS011;8803;48.116;11.590;2023-05-29T06:21:20;6.08;;;5.47;;
17372;SDS011;8803;48.116;11.590;2023-05-29T06:23:24;6.58;;;5.97;;
17372;SDS011;8803;48.116;11.590;2023-05-29T06:25:28;5.87;;;5.28;;
17372;SDS011;8803;48.116;11.590;2023-05-29T06:27:40;6.25;;;5.10;;
17372;SDS011;8803;48.116;11.590;2023-05-29T06:29:45;6.12;;;5.25;;
17372;SDS011;8803;48.116;11.590;2023-05-29T06:31:48;6.28;;;5.35;;
17372;SDS011;8803;48.116;11.590;2023-05-29T06:33:52;6.42;;;5.58;;
17372;SDS011;8803;48.116;11.590;2023-05-29T06:35:56;6.47;;;5.85;;
17372;SDS011;8803;48.116;11.590;2023-05-29T06:38:09;6.70;;;5.72;;
17372;SDS011;8803;48.116;11.590;2023-05-29T06:40:13;6.50;;;4.87;;
17372;SDS011;8803;48.116;11.590;2023-05-29T06:42:26;6.83;;;5.78;;
17372;SDS011;8803;48.116;11.590;2023-05-29T06:44:30;6.33;;;4.92;;
17372;SDS011;8803;48.116;11.590;2023-05-29T06:46:42;5.95;;;5.35;;
17372;SDS011;8803;48.116;11.590;2023-05-29T06:48:46;6.00;;;5.40;;
17372;SDS011;8803;48.116;11.590;2023-05-29T06:50:50;8.25;;;6.05;;
17372;SDS011;8803;48.116;11.590;2023-05-29T06:52:54;7.37;;;5.30;;
17372;SDS011;8803;48.116;11.590;2023-05-29T06:54:57;5.75;;;5.22;;
17372;SDS011;8803;48.116;11.590;2023-05-29T06:57:10;6.35;;;5.45;;
17372;SDS011;8803;48.116;11.590;2023-05-29T06:59:15;8.50;;;5.42;;
17372;SDS011;8803;48.116;11.590;2023-05-29T07:01:19;6.53;;;5.87;;
17372;SDS011;8803;48.116;11.590;2023-05-29T07:03:23;6.58;;;5.33;;
17372;SDS011;8803;48.116;11.590;2023-05-29T07:05:28;8.23;;;5.33;;
17372;SDS011;8803;48.116;11.590;2023-05-29T07:07:41;6.70;;;5.35;;
17372;SDS011;8803;48.116;11.590;2023-05-29T07:09:44;5.45;;;4.95;;
17372;SDS011;8803;48.116;11.590;2023-05-29T07:11:48;5.90;;;5.20;;
17372;SDS011;8803;48.116;11.590;2023-05-29T07:13:53;6.22;;;5.62;;
17372;SDS011;8803;48.116;11.590;2023-05-29T07:15:57;6.30;;;5.08;;
17372;SDS011;8803;48.116;11.590;2023-05-29T07:18:09;7.33;;;5.10;;
17372;SDS011;8803;48.116;11.590;2023-05-29T07:20:13;7.15;;;5.45;;
17372;SDS011;8803;48.116;11.590;2023-05-29T07:22:19;7.42;;;5.12;;
17372;SDS011;8803;48.116;11.590;2023-05-29T07:24:23;5.60;;;4.75;;
17372;SDS011;8803;48.116;11.590;2023-05-29T07:26:37;5.40;;;4.90;;
17372;SDS011;8803;48.116;11.590;2023-05-29T07:28:40;6.15;;;5.55;;
17372;SDS011;8803;48.116;11.590;2023-05-29T07:30:44;6.47;;;5.47;;
17372;SDS011;8803;48.116;11.590;2023-05-29T07:32:48;12.15;;;5.83;;
17372;SDS011;8803;48.116;11.590;2023-05-29T07:34:52;7.72;;;5.55;;
17372;SDS011;8803;48.116;11.590;2023-05-29T07:37:05;7.10;;;5.85;;
17372;SDS011;8803;48.116;11.590;2023-05-29T07:39:09;7.05;;;5.75;;
17372;SDS011;8803;48.116;11.590;2023-05-29T07:41:14;7.28;;;5.70;;
17372;SDS011;8803;48.116;11.590;2023-05-29T07:43:18;7.60;;;5.28;;
17372;SDS011;8803;48.116;11.590;2023-05-29T07:45:22;7.70;;;5.65;;
17372;SDS011;8803;48.116;11.590;2023-05-29T07:47:35;7.05;;;6.25;;
17372;SDS011;8803;48.116;11.590;2023-05-29T07:49:39;7.75;;;5.30;;
17372;SDS011;8803;48.116;11.590;2023-05-29T07:51:43;6.70;;;5.55;;
17372;SDS011;8803;48.116;11.590;2023-05-29T07:53:47;6.83;;;5.70;;
17372;SDS011;8803;48.116;11.590;2023-05-29T07:55:59;8.43;;;6.25;;
17372;SDS011;8803;48.116;11.590;2023-05-29T07:58:03;6.08;;;5.47;;
17372;SDS011;8803;48.116;11.590;2023-05-29T08:00:16;8.08;;;6.30;;
17372;SDS011;8803;48.116;11.590;2023-05-29T08:02:20;7.22;;;5.35;;
17372;SDS011;8803;48.116;11.590;2023-05-29T08:04:36;6.25;;;5.62;;
17372;SDS011;8803;48.116;11.590;2023-05-29T08:06:39;6.97;;;5.37;;
17372;SDS011;8803;48.116;11.590;2023-05-29T08:08:53;5.90;;;5.30;;
17372;SDS011;8803;48.116;11.590;2023-05-29T08:10:57;6.58;;;5.15;;
17372;SDS011;8803;48.116;11.590;2023-05-29T08:13:02;5.90;;;5.20;;
17372;SDS011;8803;48.116;11.590;2023-05-29T08:15:07;8.28;;;5.92;;
17372;SDS011;8803;48.116;11.590;2023-05-29T08:17:20;5.95;;;5.45;;
17372;SDS011;8803;48.116;11.590;2023-05-29T08:19:24;8.30;;;6.40;;
17372;SDS011;8803;48.116;11.590;2023-05-29T08:21:27;6.28;;;5.25;;
17372;SDS011;8803;48.116;11.590;2023-05-29T08:23:32;8.18;;;6.53;;
17372;SDS011;8803;48.116;11.590;2023-05-29T08:25:36;8.38;;;6.97;;
17372;SDS011;8803;48.116;11.590;2023-05-29T08:27:49;7.58;;;6.22;;
17372;SDS011;8803;48.116;11.590;2023-05-29T08:29:53;7.60;;;5.70;;
17372;SDS011;8803;48.116;11.590;2023-05-29T08:32:07;8.25;;;6.47;;
17372;SDS011;8803;48.116;11.590;2023-05-29T08:34:11;7.92;;;6.20;;
17372;SDS011;8803;48.116;11.590;2023-05-29T08:36:16;5.97;;;5.37;;
17372;SDS011;8803;48.116;11.590;2023-05-29T08:38:30;7.17;;;5.67;;
17372;SDS011;8803;48.116;11.590;2023-05-29T08:40:34;5.95;;;5.37;;
17372;SDS011;8803;48.116;11.590;2023-05-29T08:42:50;7.97;;;6.53;;
17372;SDS011;8803;48.116;11.590;2023-05-29T08:44:53;6.30;;;5.28;;
17372;SDS011;8803;48.116;11.590;2023-05-29T08:47:07;10.32;;;9.30;;
17372;SDS011;8803;48.116;11.590;2023-05-29T08:49:14;9.60;;;7.50;;
17372;SDS011;8803;48.116;11.590;2023-05-29T08:51:23;6.72;;;5.50;;
17372;SDS011;8803;48.116;11.590;2023-05-29T08:53:31;7.45;;;5.65;;
17372;SDS011;8803;48.116;11.590;2023-05-29T08:55:35;6.70;;;5.97;;
17372;SDS011;8803;48.116;11.590;2023-05-29T08:57:49;5.47;;;4.92;;
17372;SDS011;8803;48.116;11.590;2023-05-29T08:59:53;6.42;;;5.72;;
17372;SDS011;8803;48.116;11.590;2023-05-29T09:02:11;8.65;;;6.30;;
17372;SDS011;8803;48.116;11.590;2023-05-29T09:04:16;6.75;;;5.35;;
17372;SDS011;8803;48.116;11.590;2023-05-29T09:06:28;6.30;;;5.17;;
17372;SDS011;8803;48.116;11.590;2023-05-29T09:08:32;8.33;;;5.40;;
17372;SDS011;8803;48.116;11.590;2023-05-29T09:10:45;7.40;;;5.60;;
17372;SDS011;8803;48.116;11.590;2023-05-29T09:12:49;6.33;;;4.92;;
17372;SDS011;8803;48.116;11.590;2023-05-29T09:14:53;10.50;;;6.42;;
17372;SDS011;8803;48.116;11.590;2023-05-29T09:17:06;6.20;;;5.30;;
17372;SDS011;8803;48.116;11.590;2023-05-29T09:19:11;7.00;;;5.42;;
17372;SDS011;8803;48.116;11.590;2023-05-29T09:21:24;9.73;;;8.15;;
17372;SDS011;8803;48.116;11.590;2023-05-29T09:23:36;6.62;;;5.30;;
17372;SDS011;8803;48.116;11.590;2023-05-29T09:25:41;7.85;;;4.97;;
17372;SDS011;8803;48.116;11.590;2023-05-29T09:27:55;6.15;;;5.08;;
17372;SDS011;8803;48.116;11.590;2023-05-29T09:30:00;6.80;;;5.45;;
17372;SDS011;8803;48.116;11.590;2023-05-29T09:32:06;5.78;;;5.10;;
17372;SDS011;8803;48.116;11.590;2023-05-29T09:34:10;5.10;;;4.53;;
17372;SDS011;8803;48.116;11.590;2023-05-29T09:36:23;5.37;;;4.87;;
17372;SDS011;8803;48.116;11.590;2023-05-29T09:38:27;6.70;;;5.28;;
17372;SDS011;8803;48.116;11.590;2023-05-29T09:40:33;7.35;;;5.03;;
17372;SDS011;8803;48.116;11.590;2023-05-29T09:42:45;8.05;;;7.25;;
17372;SDS011;8803;48.116;11.590;2023-05-29T09:44:50;6.90;;;4.92;;
17372;SDS011;8803;48.116;11.590;2023-05-29T09:47:03;6.55;;;5.85;;
17372;SDS011;8803;48.116;11.590;2023-05-29T09:49:10;5.65;;;4.97;;
17372;SDS011;8803;48.116;11.590;2023-05-29T09:51:21;5.55;;;4.92;;
17372;SDS011;8803;48.116;11.590;2023-05-29T09:53:25;6.00;;;4.97;;
17372;SDS011;8803;48.116;11.590;2023-05-29T09:55:31;7.35;;;5.17;;
17372;SDS011;8803;48.116;11.590;2023-05-29T09:57:45;5.60;;;4.78;;
17372;SDS011;8803;48.116;11.590;2023-05-29T09:59:50;5.28;;;4.67;;
17372;SDS011;8803;48.116;11.590;2023-05-29T10:01:59;7.53;;;4.75;;
17372;SDS011;8803;48.116;11.590;2023-05-29T10:04:04;8.05;;;5.60;;
17372;SDS011;8803;48.116;11.590;2023-05-29T10:06:08;5.80;;;4.60;;
17372;SDS011;8803;48.116;11.590;2023-05-29T10:08:22;7.08;;;5.05;;
17372;SDS011;8803;48.116;11.590;2023-05-29T10:10:28;7.15;;;4.70;;
17372;SDS011;8803;48.116;11.590;2023-05-29T10:12:34;7.08;;;4.72;;
17372;SDS011;8803;48.116;11.590;2023-05-29T10:14:47;6.15;;;4.87;;
17372;SDS011;8803;48.116;11.590;2023-05-29T10:16:54;7.47;;;5.37;;
17372;SDS011;8803;48.116;11.590;2023-05-29T10:19:09;6.00;;;4.78;;
17372;SDS011;8803;48.116;11.590;2023-05-29T10:21:14;7.53;;;5.65;;
17372;SDS011;8803;48.116;11.590;2023-05-29T10:23:21;7.42;;;5.22;;
17372;SDS011;8803;48.116;11.590;2023-05-29T10:25:27;7.28;;;4.95;;
17372;SDS011;8803;48.116;11.590;2023-05-29T10:27:41;6.97;;;6.10;;
17372;SDS011;8803;48.116;11.590;2023-05-29T10:29:48;9.70;;;7.17;;
17372;SDS011;8803;48.116;11.590;2023-05-29T10:32:12;6.25;;;4.90;;
17372;SDS011;8803;48.116;11.590;2023-05-29T10:34:20;5.80;;;4.70;;
17372;SDS011;8803;48.116;11.590;2023-05-29T10:36:28;6.00;;;4.83;;
17372;SDS011;8803;48.116;11.590;2023-05-29T10:38:44;8.48;;;5.75;;
17372;SDS011;8803;48.116;11.590;2023-05-29T10:40:48;5.87;;;4.62;;
17372;SDS011;8803;48.116;11.590;2023-05-29T10:42:52;5.30;;;4.80;;
17372;SDS011;8803;48.116;11.590;2023-05-29T10:44:59;5.80;;;4.80;;
17372;SDS011;8803;48.116;11.590;2023-05-29T10:47:13;5.87;;;4.53;;
17372;SDS011;8803;48.116;11.590;2023-05-29T10:49:25;7.67;;;4.80;;
17372;SDS011;8803;48.116;11.590;2023-05-29T10:51:31;6.33;;;4.83;;
17372;SDS011;8803;48.116;11.590;2023-05-29T10:53:35;7.20;;;4.70;;
17372;SDS011;8803;48.116;11.590;2023-05-29T10:55:41;6.05;;;3.85;;
17372;SDS011;8803;48.116;11.590;2023-05-29T10:57:55;5.40;;;4.62;;
17372;SDS011;8803;48.116;11.590;2023-05-29T11:00:04;5.62;;;4.40;;
17372;SDS011;8803;48.116;11.590;2023-05-29T11:02:18;5.67;;;4.45;;
17372;SDS011;8803;48.116;11.590;2023-05-29T11:04:27;4.92;;;4.53;;
17372;SDS011;8803;48.116;11.590;2023-05-29T11:06:42;5.47;;;4.12;;
17372;SDS011;8803;48.116;11.590;2023-05-29T11:08:46;5.50;;;4.42;;
17372;SDS011;8803;48.116;11.590;2023-05-29T11:10:58;6.08;;;4.35;;
17372;SDS011;8803;48.116;11.590;2023-05-29T11:13:02;5.17;;;4.42;;
17372;SDS011;8803;48.116;11.590;2023-05-29T11:15:09;5.10;;;4.58;;
17372;SDS011;8803;48.116;11.590;2023-05-29T11:17:43;6.85;;;4.50;;
17372;SDS011;8803;48.116;11.590;2023-05-29T11:19:48;8.18;;;5.25;;
17372;SDS011;8803;48.116;11.590;2023-05-29T11:21:56;6.05;;;4.72;;
17372;SDS011;8803;48.116;11.590;2023-05-29T11:24:08;5.67;;;4.87;;
17372;SDS011;8803;48.116;11.590;2023-05-29T11:28:27;6.10;;;4.75;;
17372;SDS011;8803;48.116;11.590;2023-05-29T11:30:33;6.97;;;5.20;;
17372;SDS011;8803;48.116;11.590;2023-05-29T11:32:48;5.15;;;4.53;;
17372;SDS011;8803;48.116;11.590;2023-05-29T11:34:54;6.37;;;5.00;;
17372;SDS011;8803;48.116;11.590;2023-05-29T11:37:10;5.87;;;5.17;;
17372;SDS011;8803;48.116;11.590;2023-05-29T11:39:15;7.83;;;5.05;;
17372;SDS011;8803;48.116;11.590;2023-05-29T11:41:19;5.97;;;4.40;;
17372;SDS011;8803;48.116;11.590;2023-05-29T11:43:23;7.15;;;5.33;;
17372;SDS011;8803;48.116;11.590;2023-05-29T11:45:27;6.42;;;5.00;;
17372;SDS011;8803;48.116;11.590;2023-05-29T11:47:52;5.72;;;4.80;;
17372;SDS011;8803;48.116;11.590;2023-05-29T11:49:57;4.97;;;4.50;;
17372;SDS011;8803;48.116;11.590;2023-05-29T11:52:07;5.37;;;4.30;;
17372;SDS011;8803;48.116;11.590;2023-05-29T11:54:12;5.33;;;4.45;;
17372;SDS011;8803;48.116;11.590;2023-05-29T11:56:16;4.17;;;3.77;;
17372;SDS011;8803;48.116;11.590;2023-05-29T11:58:29;4.85;;;4.22;;
17372;SDS011;8803;48.116;11.590;2023-05-29T12:00:34;5.67;;;4.53;;
17372;SDS011;8803;48.116;11.590;2023-05-29T12:02:50;6.65;;;4.47;;
17372;SDS011;8803;48.116;11.590;2023-05-29T12:05:00;6.65;;;4.60;;
17372;SDS011;8803;48.116;11.590;2023-05-29T12:07:17;6.40;;;4.45;;
17372;SDS011;8803;48.116;11.590;2023-05-29T12:09:25;5.70;;;3.92;;
17372;SDS011;8803;48.116;11.590;2023-05-29T12:11:29;5.97;;;4.50;;
17372;SDS011;8803;48.116;11.590;2023-05-29T12:13:35;6.53;;;4.45;;
17372;SDS011;8803;48.116;11.590;2023-05-29T12:15:39;8.13;;;4.22;;
17372;SDS011;8803;48.116;11.590;2023-05-29T12:17:54;6.78;;;4.58;;
17372;SDS011;8803;48.116;11.590;2023-05-29T12:19:58;9.03;;;4.50;;
17372;SDS011;8803;48.116;11.590;2023-05-29T12:22:03;4.33;;;3.60;;
17372;SDS011;8803;48.116;11.590;2023-05-29T12:24:07;4.47;;;4.05;;
17372;SDS011;8803;48.116;11.590;2023-05-29T12:26:11;8.35;;;4.72;;
17372;SDS011;8803;48.116;11.590;2023-05-29T12:28:25;6.30;;;5.05;;
17372;SDS011;8803;48.116;11.590;2023-05-29T12:30:29;4.83;;;3.83;;
17372;SDS011;8803;48.116;11.590;2023-05-29T12:32:36;5.25;;;4.70;;
17372;SDS011;8803;48.116;11.590;2023-05-29T12:34:41;6.70;;;4.40;;
17372;SDS011;8803;48.116;11.590;2023-05-29T12:36:53;6.45;;;4.20;;
17372;SDS011;8803;48.116;11.590;2023-05-29T12:38:59;4.62;;;4.15;;
17372;SDS011;8803;48.116;11.590;2023-05-29T12:41:04;4.33;;;3.92;;
17372;SDS011;8803;48.116;11.590;2023-05-29T12:43:08;7.87;;;4.55;;
17372;SDS011;8803;48.116;11.590;2023-05-29T12:45:12;6.00;;;4.03;;
17372;SDS011;8803;48.116;11.590;2023-05-29T12:47:26;7.28;;;4.75;;
17372;SDS011;8803;48.116;11.590;2023-05-29T12:49:35;4.70;;;4.08;;
17372;SDS011;8803;48.116;11.590;2023-05-29T12:51:44;4.75;;;4.25;;
17372;SDS011;8803;48.116;11.590;2023-05-29T12:53:49;4.60;;;4.15;;
17372;SDS011;8803;48.116;11.590;2023-05-29T12:55:54;5.92;;;4.22;;
17372;SDS011;8803;48.116;11.590;2023-05-29T12:58:09;7.45;;;4.72;;
17372;SDS011;8803;48.116;11.590;2023-05-29T13:00:15;7.42;;;5.40;;
17372;SDS011;8803;48.116;11.590;2023-05-29T13:02:29;5.28;;;4.58;;